createdAt,value
2022-09-27T00:00:16.800Z,0.68
2022-09-27T00:02:45.232Z,0.77
2022-09-27T00:05:12.567Z,0.70
2022-09-27T00:07:39.895Z,0.60
2022-09-27T00:10:08.399Z,0.60
2022-09-27T00:12:36.334Z,0.82
2022-09-27T00:15:04.062Z,1.08
2022-09-27T00:17:31.804Z,0.75
2022-09-27T00:20:01.951Z,0.80
2022-09-27T00:22:29.511Z,0.88
2022-09-27T00:24:56.825Z,0.60
2022-09-27T00:27:24.172Z,0.70
2022-09-27T00:29:52.250Z,0.85
2022-09-27T00:32:19.835Z,0.57
2022-09-27T00:34:47.198Z,0.68
2022-09-27T00:37:14.755Z,0.70
2022-09-27T00:39:42.356Z,0.63
2022-09-27T00:42:13.559Z,0.50
2022-09-27T00:44:41.311Z,0.52
2022-09-27T00:47:08.602Z,0.70
2022-09-27T00:49:54.487Z,0.60
2022-09-27T00:52:32.098Z,0.63
2022-09-27T00:55:06.651Z,0.55
2022-09-27T00:57:33.970Z,0.50
2022-09-27T01:00:06.023Z,0.60
2022-09-27T01:02:35.402Z,0.60
2022-09-27T01:05:03.422Z,0.40
2022-09-27T01:07:31.263Z,0.70
2022-09-27T01:09:58.833Z,0.60
2022-09-27T01:12:35.186Z,0.50
2022-09-27T01:15:03.050Z,0.65
2022-09-27T01:17:40.544Z,0.57
2022-09-27T01:20:20.037Z,0.50
2022-09-27T01:22:53.452Z,0.60
2022-09-27T01:25:26.889Z,0.73
2022-09-27T01:27:54.211Z,0.80
2022-09-27T01:30:24.604Z,0.50
2022-09-27T01:33:23.270Z,0.70
2022-09-27T01:36:08.855Z,0.60
2022-09-27T01:38:48.371Z,0.60
2022-09-27T01:41:53.246Z,0.50
2022-09-27T01:44:35.773Z,0.70
2022-09-27T01:47:13.478Z,0.57
2022-09-27T01:49:58.591Z,0.50
2022-09-27T01:52:31.483Z,0.60
2022-09-27T01:55:01.137Z,0.60
2022-09-27T01:58:04.479Z,0.70
2022-09-27T02:00:32.483Z,1.00
2022-09-27T02:03:07.679Z,0.52
2022-09-27T02:05:51.907Z,0.60
2022-09-27T02:08:51.225Z,0.80
2022-09-27T02:11:28.746Z,0.65
2022-09-27T02:14:18.867Z,0.70
2022-09-27T02:19:20.606Z,0.50
2022-09-27T02:21:59.482Z,0.70
2022-09-27T02:24:45.259Z,0.57
2022-09-27T02:27:15.983Z,0.77
2022-09-27T02:29:48.206Z,0.57
2022-09-27T02:32:15.714Z,0.68
2022-09-27T02:34:44.491Z,0.88
2022-09-27T02:37:12.120Z,0.77
2022-09-27T02:39:39.536Z,0.70
2022-09-27T02:42:08.636Z,0.88
2022-09-27T02:44:38.240Z,0.80
2022-09-27T02:47:08.685Z,0.68
2022-09-27T02:49:53.439Z,1.13
2022-09-27T02:52:49.970Z,0.80
2022-09-27T02:55:24.358Z,1.00
2022-09-27T02:58:20.737Z,1.05
2022-09-27T03:01:22.658Z,1.08
2022-09-27T03:04:14.718Z,1.10
2022-09-27T03:06:43.395Z,1.33
2022-09-27T03:09:19.948Z,1.45
2022-09-27T03:11:47.292Z,1.33
2022-09-27T03:14:14.862Z,1.05
2022-09-27T03:16:52.033Z,1.42
2022-09-27T03:22:44.523Z,1.52
2022-09-27T03:25:12.306Z,1.50
2022-09-27T03:27:39.652Z,1.60
2022-09-27T03:30:07.677Z,1.70
2022-09-27T03:32:35.069Z,2.28
2022-09-27T03:35:21.134Z,2.22
2022-09-27T03:37:49.297Z,1.95
2022-09-27T03:40:16.810Z,1.90
2022-09-27T03:42:49.475Z,2.25
2022-09-27T03:45:17.573Z,1.70
2022-09-27T03:47:45.446Z,1.92
2022-09-27T03:50:13.151Z,1.80
2022-09-27T03:52:40.512Z,1.98
2022-09-27T03:55:07.956Z,2.17
2022-09-27T03:57:35.307Z,1.60
2022-09-27T04:00:02.802Z,1.83
2022-09-27T04:02:38.861Z,2.40
2022-09-27T04:05:25.376Z,2.65
2022-09-27T04:07:59.058Z,1.77
2022-09-27T04:10:26.440Z,2.17
2022-09-27T04:12:53.840Z,1.73
2022-09-27T04:15:23.574Z,1.77
2022-09-27T04:17:51.122Z,1.67
2022-09-27T04:20:33.446Z,1.70
2022-09-27T04:23:04.909Z,1.58
2022-09-27T04:25:35.077Z,1.48
2022-09-27T04:28:09.748Z,1.40
2022-09-27T04:30:37.739Z,1.30
2022-09-27T04:33:14.287Z,1.20
2022-09-27T04:39:07.249Z,0.68
2022-09-27T04:41:37.844Z,0.60
2022-09-27T04:44:06.669Z,0.80
2022-09-27T04:46:35.057Z,0.50
2022-09-27T04:49:03.105Z,0.60
2022-09-27T04:51:32.428Z,0.45
2022-09-27T04:54:01.952Z,0.70
2022-09-27T04:56:33.169Z,0.55
2022-09-27T04:59:02.634Z,0.57
2022-09-27T05:01:31.614Z,0.82
2022-09-27T05:04:28.487Z,0.80
2022-09-27T05:06:57.318Z,0.32
2022-09-27T05:09:40.864Z,0.57
2022-09-27T05:12:09.096Z,0.57
2022-09-27T05:14:54.973Z,0.50
2022-09-27T05:17:42.310Z,0.40
2022-09-27T05:20:25.589Z,0.50
2022-09-27T05:23:16.000Z,0.47
2022-09-27T05:25:43.832Z,0.30
2022-09-27T05:28:13.349Z,0.43
2022-09-27T05:30:41.055Z,0.22
2022-09-27T05:33:18.012Z,0.68
2022-09-27T05:35:55.313Z,0.50
2022-09-27T05:38:26.479Z,0.40
2022-09-27T05:40:57.320Z,1.23
2022-09-27T05:43:25.586Z,0.30
2022-09-27T05:45:53.653Z,0.30
2022-09-27T05:48:22.291Z,0.70
2022-09-27T05:51:09.919Z,0.50
2022-09-27T05:53:40.024Z,0.65
2022-09-27T05:56:13.588Z,0.47
2022-09-27T05:59:04.116Z,0.38
2022-09-27T06:01:48.323Z,0.85
2022-09-27T06:04:34.253Z,0.40
2022-09-27T06:07:21.705Z,0.60
2022-09-27T06:09:49.034Z,0.60
2022-09-27T06:12:16.827Z,0.60
2022-09-27T06:14:44.123Z,0.55
2022-09-27T06:17:18.613Z,0.50
2022-09-27T06:19:48.105Z,0.50
2022-09-27T06:22:15.820Z,0.50
2022-09-27T06:24:53.867Z,0.50
2022-09-27T06:27:28.658Z,0.50
2022-09-27T06:30:08.108Z,1.33
2022-09-27T06:32:47.866Z,0.82
2022-09-27T06:35:25.003Z,1.20
2022-09-27T06:37:53.221Z,0.73
2022-09-27T06:40:22.494Z,0.90
2022-09-27T06:43:18.419Z,0.50
2022-09-27T06:46:07.597Z,0.77
2022-09-27T06:48:54.000Z,0.95
2022-09-27T06:51:21.494Z,0.93
2022-09-27T06:53:49.882Z,1.05
2022-09-27T06:56:17.492Z,0.93
2022-09-27T06:59:07.238Z,0.98
2022-09-27T07:01:43.529Z,0.70
2022-09-27T07:04:29.411Z,0.70
2022-09-27T07:07:06.267Z,1.08
2022-09-27T07:09:40.295Z,0.57
2022-09-27T07:12:08.186Z,0.60
2022-09-27T07:14:36.051Z,0.50
2022-09-27T07:17:05.122Z,0.60
2022-09-27T07:19:41.664Z,0.50
2022-09-27T07:22:09.963Z,0.70
2022-09-27T07:24:37.921Z,0.73
2022-09-27T07:27:06.665Z,0.70
2022-09-27T07:29:34.453Z,0.55
2022-09-27T07:32:02.402Z,0.88
2022-09-27T07:34:29.765Z,0.70
2022-09-27T07:37:00.587Z,0.75
2022-09-27T07:39:29.138Z,0.90
2022-09-27T07:41:56.436Z,0.95
2022-09-27T07:44:23.822Z,0.70
2022-09-27T07:47:27.848Z,0.57
2022-09-27T07:50:24.553Z,0.82
2022-09-27T07:52:56.894Z,0.82
2022-09-27T07:55:42.806Z,0.63
2022-09-27T07:58:17.426Z,0.73
2022-09-27T08:00:44.862Z,0.70
2022-09-27T08:03:16.588Z,0.55
2022-09-27T08:05:45.698Z,0.73
2022-09-27T08:08:13.061Z,0.73
2022-09-27T08:10:44.140Z,0.82
2022-09-27T08:13:12.518Z,0.60
2022-09-27T08:15:40.646Z,0.57
2022-09-27T08:18:10.128Z,1.20
2022-09-27T08:21:10.074Z,0.70
2022-09-27T08:23:51.327Z,0.70
2022-09-27T08:26:32.948Z,0.93
2022-09-27T08:29:13.658Z,0.90
2022-09-27T08:31:52.094Z,0.93
2022-09-27T08:36:47.123Z,0.88
2022-09-27T08:39:14.568Z,0.65
2022-09-27T08:42:24.110Z,0.80
2022-09-27T08:44:59.731Z,0.77
2022-09-27T08:47:47.900Z,0.73
2022-09-27T08:50:39.731Z,0.73
2022-09-27T08:53:15.098Z,0.57
2022-09-27T08:55:50.561Z,1.90
2022-09-27T08:58:36.003Z,0.50
2022-09-27T09:01:15.977Z,0.70
2022-09-27T09:04:04.363Z,0.70
2022-09-27T09:06:49.777Z,0.82
2022-09-27T09:09:35.524Z,0.68
2022-09-27T09:12:43.602Z,0.90
2022-09-27T09:15:14.055Z,0.90
2022-09-27T09:20:54.588Z,0.80
2022-09-27T09:23:25.085Z,1.00
2022-09-27T09:26:09.194Z,0.90
2022-09-27T09:28:36.566Z,0.82
2022-09-27T09:31:15.699Z,1.55
2022-09-27T09:33:58.149Z,1.42
2022-09-27T09:36:41.757Z,1.50
2022-09-27T09:39:16.205Z,1.38
2022-09-27T09:41:56.181Z,0.73
2022-09-27T09:44:23.479Z,1.25
2022-09-27T09:46:54.219Z,1.30
2022-09-27T09:49:33.477Z,1.52
2022-09-27T09:52:09.191Z,1.17
2022-09-27T09:54:42.216Z,1.50
2022-09-27T09:57:09.516Z,1.58
2022-09-27T09:59:41.436Z,1.67
2022-09-27T10:02:42.570Z,1.30
2022-09-27T10:05:24.784Z,1.23
2022-09-27T10:08:02.636Z,1.60
2022-09-27T10:10:31.461Z,1.80
2022-09-27T10:13:19.106Z,1.23
2022-09-27T10:16:09.980Z,1.20
2022-09-27T10:18:38.364Z,1.67
2022-09-27T10:21:09.390Z,1.93
2022-09-27T10:23:38.244Z,1.40
2022-09-27T10:26:21.801Z,1.48
2022-09-27T10:28:52.658Z,2.25
2022-09-27T10:31:37.335Z,1.75
2022-09-27T10:34:19.378Z,1.70
2022-09-27T10:37:13.118Z,3.38
2022-09-27T10:39:52.408Z,1.92
2022-09-27T10:42:27.990Z,2.03
2022-09-27T10:44:55.659Z,2.38
2022-09-27T10:47:39.886Z,1.90
2022-09-27T10:50:45.953Z,2.40
2022-09-27T10:53:23.095Z,2.55
2022-09-27T10:56:01.309Z,2.55
2022-09-27T10:58:35.995Z,2.10
2022-09-27T11:01:06.559Z,1.65
2022-09-27T11:03:51.088Z,2.33
2022-09-27T11:06:24.023Z,2.03
2022-09-27T11:08:54.955Z,1.70
2022-09-27T11:11:27.632Z,2.33
2022-09-27T11:14:08.213Z,2.13
2022-09-27T11:16:46.890Z,1.80
2022-09-27T11:19:35.974Z,1.98
2022-09-27T11:22:35.829Z,3.85
2022-09-27T11:25:57.674Z,4.47
2022-09-27T11:28:50.311Z,3.67
2022-09-27T11:31:52.139Z,2.80
2022-09-27T11:34:28.911Z,2.03
2022-09-27T11:37:37.246Z,1.90
2022-09-27T11:40:05.269Z,2.05
2022-09-27T11:42:35.792Z,2.13
2022-09-27T11:48:22.391Z,1.50
2022-09-27T11:51:04.818Z,1.55
2022-09-27T11:53:39.075Z,1.38
2022-09-27T11:56:23.122Z,1.42
2022-09-27T11:58:50.530Z,2.22
2022-09-27T12:01:17.869Z,1.20
2022-09-27T12:03:45.324Z,1.20
2022-09-27T12:06:39.510Z,1.20
2022-09-27T12:09:22.136Z,0.88
2022-09-27T12:11:53.134Z,0.90
2022-09-27T12:14:41.595Z,0.70
2022-09-27T12:17:20.593Z,0.60
2022-09-27T12:19:52.003Z,0.60
2022-09-27T12:22:54.351Z,0.57
2022-09-27T12:28:00.945Z,0.65
2022-09-27T12:30:30.079Z,0.70
2022-09-27T12:33:17.661Z,0.70
2022-09-27T12:35:51.001Z,1.25
2022-09-27T12:38:20.984Z,0.47
2022-09-27T12:40:56.212Z,0.60
2022-09-27T12:43:33.421Z,0.50
2022-09-27T12:46:32.592Z,0.82
2022-09-27T12:49:27.525Z,0.52
2022-09-27T12:51:57.454Z,0.45
2022-09-27T12:54:55.299Z,1.02
2022-09-27T12:57:45.816Z,0.50
2022-09-27T13:00:28.005Z,0.50
2022-09-27T13:03:16.426Z,0.52
2022-09-27T13:05:51.427Z,0.47
2022-09-27T13:08:34.640Z,0.47
2022-09-27T13:11:44.223Z,0.52
2022-09-27T13:14:23.109Z,0.70
2022-09-27T13:16:51.694Z,0.73
2022-09-27T13:19:36.467Z,0.52
2022-09-27T13:22:04.955Z,0.60
2022-09-27T13:24:46.942Z,0.40
2022-09-27T13:27:41.670Z,0.52
2022-09-27T13:30:16.408Z,0.60
2022-09-27T13:33:10.764Z,0.50
2022-09-27T13:36:17.266Z,0.50
2022-09-27T13:38:55.162Z,0.85
2022-09-27T13:41:23.306Z,0.80
2022-09-27T13:44:24.377Z,0.80
2022-09-27T13:46:58.302Z,0.60
2022-09-27T13:49:38.137Z,0.52
2022-09-27T13:52:17.212Z,0.70
2022-09-27T13:54:54.928Z,0.80
2022-09-27T13:57:48.130Z,0.80
2022-09-27T14:00:25.370Z,0.75
2022-09-27T14:03:02.736Z,0.57
2022-09-27T14:05:51.968Z,0.60
2022-09-27T14:08:44.237Z,0.70
2022-09-27T14:11:13.198Z,0.50
2022-09-27T14:13:41.791Z,0.68
2022-09-27T14:16:15.710Z,0.50
2022-09-27T14:18:50.854Z,0.50
2022-09-27T14:21:28.666Z,0.70
2022-09-27T14:24:21.755Z,0.70
2022-09-27T14:26:50.715Z,1.00
2022-09-27T14:29:22.548Z,0.60
2022-09-27T14:32:09.277Z,0.60
2022-09-27T14:34:47.991Z,0.60
2022-09-27T14:37:26.907Z,0.80
2022-09-27T14:40:08.202Z,0.52
2022-09-27T14:42:37.080Z,0.63
2022-09-27T14:45:06.651Z,0.60
2022-09-27T14:47:34.024Z,0.80
2022-09-27T14:50:05.671Z,0.50
2022-09-27T14:52:35.485Z,0.50
2022-09-27T14:55:08.014Z,0.73
2022-09-27T14:57:37.149Z,0.55
2022-09-27T15:00:26.285Z,0.80
2022-09-27T15:02:55.514Z,0.60
2022-09-27T15:05:28.668Z,0.40
2022-09-27T15:07:58.332Z,0.60
2022-09-27T15:10:27.909Z,0.60
2022-09-27T15:12:59.905Z,1.15
2022-09-27T15:15:31.243Z,0.60
2022-09-27T15:18:02.578Z,0.40
2022-09-27T15:20:34.962Z,0.50
2022-09-27T15:23:06.397Z,0.57
2022-09-27T15:25:44.306Z,0.68
2022-09-27T15:28:11.591Z,0.50
2022-09-27T15:30:50.387Z,0.77
2022-09-27T15:33:34.960Z,0.40
2022-09-27T15:36:04.709Z,0.57
2022-09-27T15:38:48.367Z,1.05
2022-09-27T15:41:17.653Z,0.47
2022-09-27T15:43:45.637Z,0.70
2022-09-27T15:46:26.272Z,1.00
2022-09-27T15:49:33.545Z,0.60
2022-09-27T15:52:01.884Z,0.60
2022-09-27T15:54:31.841Z,0.70
2022-09-27T15:57:04.387Z,0.55
2022-09-27T15:59:34.935Z,0.60
2022-09-27T16:02:07.743Z,0.65
2022-09-27T16:04:35.576Z,0.60
2022-09-27T16:07:04.913Z,0.57
2022-09-27T16:09:32.227Z,0.68
2022-09-27T16:11:59.494Z,0.73
2022-09-27T16:14:26.796Z,1.00
2022-09-27T16:16:58.769Z,0.77
2022-09-27T16:19:26.766Z,0.70
2022-09-27T16:21:54.024Z,0.63
2022-09-27T16:24:21.333Z,0.93
2022-09-27T16:26:48.628Z,0.85
2022-09-27T16:29:16.425Z,0.82
2022-09-27T16:31:44.287Z,1.00
2022-09-27T16:34:12.787Z,1.17
2022-09-27T16:36:40.797Z,0.82
2022-09-27T16:39:10.626Z,0.90
2022-09-27T16:41:38.181Z,0.95
2022-09-27T16:44:09.390Z,1.15
2022-09-27T16:46:37.101Z,1.00
2022-09-27T16:49:04.460Z,0.90
2022-09-27T16:51:50.418Z,0.95
2022-09-27T16:54:18.133Z,1.15
2022-09-27T16:56:45.694Z,1.20
2022-09-27T16:59:14.102Z,1.10
2022-09-27T17:01:41.777Z,1.35
2022-09-27T17:04:09.214Z,1.40
2022-09-27T17:06:36.633Z,1.25
2022-09-27T17:09:04.482Z,1.05
2022-09-27T17:11:31.954Z,1.15
2022-09-27T17:13:59.543Z,1.00
2022-09-27T17:16:28.369Z,0.82
2022-09-27T17:18:56.023Z,1.42
2022-09-27T17:21:23.291Z,1.40
2022-09-27T17:23:50.616Z,1.25
2022-09-27T17:26:20.563Z,1.30
2022-09-27T17:28:48.522Z,1.20
2022-09-27T17:31:17.664Z,1.48
2022-09-27T17:33:55.568Z,1.85
2022-09-27T17:36:30.030Z,1.90
2022-09-27T17:38:59.518Z,2.25
2022-09-27T17:41:28.543Z,2.23
2022-09-27T17:43:58.428Z,1.17
2022-09-27T17:46:27.054Z,0.95
2022-09-27T17:49:13.016Z,0.95
2022-09-27T17:51:41.226Z,0.80
2022-09-27T17:54:10.268Z,1.15
2022-09-27T17:56:42.389Z,2.00
2022-09-27T17:59:10.601Z,0.90
2022-09-27T18:01:38.817Z,0.90
2022-09-27T18:04:09.790Z,1.23
2022-09-27T18:06:40.953Z,1.05
2022-09-27T18:09:09.375Z,0.82
2022-09-27T18:11:37.015Z,0.82
2022-09-27T18:14:04.832Z,0.70
2022-09-27T18:16:36.654Z,0.88
2022-09-27T18:19:05.217Z,0.80
2022-09-27T18:21:32.562Z,0.80
2022-09-27T18:24:00.815Z,4.90
2022-09-27T18:26:29.167Z,6.63
2022-09-27T18:29:00.931Z,8.20
2022-09-27T18:31:28.323Z,4.72
2022-09-27T18:33:55.741Z,4.82
2022-09-27T18:36:24.495Z,4.07
2022-09-27T18:39:02.365Z,5.70
2022-09-27T18:41:31.507Z,5.80
2022-09-27T18:44:04.578Z,8.88
2022-09-27T18:46:37.295Z,5.05
2022-09-27T18:49:06.165Z,3.67
2022-09-27T18:51:36.187Z,2.50
2022-09-27T18:54:09.483Z,1.20
2022-09-27T18:56:39.558Z,1.10
2022-09-27T18:59:08.763Z,1.45
2022-09-27T19:01:39.760Z,1.35
2022-09-27T19:04:10.721Z,1.08
2022-09-27T19:06:39.149Z,1.17
2022-09-27T19:09:07.367Z,1.48
2022-09-27T19:11:34.738Z,1.60
2022-09-27T19:14:02.088Z,1.58
2022-09-27T19:16:29.912Z,1.65
2022-09-27T19:18:57.752Z,1.90
2022-09-27T19:21:27.024Z,1.80
2022-09-27T19:23:54.695Z,2.60
2022-09-27T19:26:23.149Z,2.58
2022-09-27T19:28:51.521Z,2.08
2022-09-27T19:31:20.410Z,2.00
2022-09-27T19:33:48.132Z,2.40
2022-09-27T19:36:16.898Z,2.05
2022-09-27T19:38:44.567Z,1.85
2022-09-27T19:41:13.810Z,1.50
2022-09-27T19:43:41.302Z,1.60
2022-09-27T19:46:08.595Z,1.73
2022-09-27T19:48:38.721Z,2.17
2022-09-27T19:51:06.788Z,1.58
2022-09-27T19:53:34.869Z,2.00
2022-09-27T19:56:06.580Z,1.67
2022-09-27T19:58:35.576Z,1.73
2022-09-27T20:01:07.471Z,2.20
2022-09-27T20:03:35.556Z,2.05
2022-09-27T20:06:03.328Z,1.92
2022-09-27T20:08:30.809Z,2.00
2022-09-27T20:11:06.842Z,3.08
2022-09-27T20:13:34.943Z,2.53
2022-09-27T20:16:09.688Z,3.00
2022-09-27T20:18:44.427Z,2.35
2022-09-27T20:21:12.144Z,2.13
2022-09-27T20:23:39.489Z,2.05
2022-09-27T20:26:08.262Z,2.03
2022-09-27T20:28:36.342Z,1.85
2022-09-27T20:31:04.981Z,1.90
2022-09-27T20:33:42.157Z,1.90
2022-09-27T20:36:10.623Z,2.15
2022-09-27T20:38:37.966Z,1.80
2022-09-27T20:41:06.218Z,2.10
2022-09-27T20:43:33.616Z,1.85
2022-09-27T20:46:01.720Z,1.40
2022-09-27T20:48:29.280Z,1.90
2022-09-27T20:51:00.254Z,2.47
2022-09-27T20:53:31.146Z,1.80
2022-09-27T20:55:59.465Z,1.48
2022-09-27T20:58:27.220Z,2.20
2022-09-27T21:00:54.986Z,2.15
2022-09-27T21:03:22.484Z,1.90
2022-09-27T21:05:56.633Z,1.90
2022-09-27T21:08:25.266Z,2.03
2022-09-27T21:10:53.877Z,2.40
2022-09-27T21:13:23.928Z,2.25
2022-09-27T21:15:51.220Z,2.25
2022-09-27T21:18:20.107Z,2.65
2022-09-27T21:20:47.395Z,2.25
2022-09-27T21:23:15.431Z,2.22
2022-09-27T21:25:42.928Z,2.20
2022-09-27T21:28:10.507Z,2.20
2022-09-27T21:30:37.760Z,2.17
2022-09-27T21:33:05.081Z,2.28
2022-09-27T21:35:32.323Z,2.13
2022-09-27T21:37:59.614Z,2.13
2022-09-27T21:40:27.840Z,1.92
2022-09-27T21:42:57.787Z,2.10
2022-09-27T21:45:25.276Z,1.90
2022-09-27T21:47:52.577Z,1.92
2022-09-27T21:50:19.997Z,1.58
2022-09-27T21:52:47.264Z,1.65
2022-09-27T21:55:14.537Z,1.63
2022-09-27T21:57:41.848Z,1.67
2022-09-27T22:00:09.627Z,1.20
2022-09-27T22:02:36.941Z,1.45
2022-09-27T22:05:05.181Z,1.38
2022-09-27T22:07:32.773Z,1.25
2022-09-27T22:10:00.065Z,1.58
2022-09-27T22:12:27.361Z,1.40
2022-09-27T22:14:54.635Z,1.40
2022-09-27T22:17:21.981Z,1.20
2022-09-27T22:19:49.256Z,1.42
2022-09-27T22:22:16.562Z,1.90
2022-09-27T22:24:43.823Z,1.38
2022-09-27T22:27:11.147Z,1.48
2022-09-27T22:29:38.417Z,1.58
2022-09-27T22:32:06.130Z,1.35
2022-09-27T22:34:33.394Z,1.45
2022-09-27T22:37:01.030Z,1.55
2022-09-27T22:39:29.014Z,1.42
2022-09-27T22:41:56.397Z,1.50
2022-09-27T22:44:24.208Z,1.23
2022-09-27T22:46:51.616Z,2.10
2022-09-27T22:49:18.925Z,2.58
2022-09-27T22:51:46.240Z,5.95
2022-09-27T22:54:13.801Z,6.05
2022-09-27T22:56:41.086Z,6.88
2022-09-27T22:59:08.364Z,2.88
2022-09-27T23:01:36.791Z,2.05
2022-09-27T23:04:04.180Z,2.22
2022-09-27T23:06:33.336Z,2.60
2022-09-27T23:09:01.364Z,2.25
2022-09-27T23:11:29.692Z,1.90
2022-09-27T23:13:56.953Z,2.80
2022-09-27T23:16:24.811Z,2.75
2022-09-27T23:18:58.364Z,2.28
2022-09-27T23:21:26.224Z,2.10
2022-09-27T23:23:55.229Z,2.50
2022-09-27T23:26:25.153Z,2.55
2022-09-27T23:28:53.716Z,2.17
2022-09-27T23:31:22.240Z,2.83
2022-09-27T23:33:49.642Z,2.38
2022-09-27T23:36:24.007Z,2.50
2022-09-27T23:38:51.375Z,2.38
2022-09-27T23:41:18.802Z,2.20
2022-09-27T23:43:47.193Z,2.25
2022-09-27T23:46:15.460Z,2.08
2022-09-27T23:48:42.986Z,2.35
2022-09-27T23:51:11.140Z,2.28
2022-09-27T23:53:39.471Z,2.90
2022-09-27T23:56:10.656Z,2.78
2022-09-27T23:58:40.753Z,2.17
